createdAt,value
2023-02-08T00:02:36.327Z,8.57
2023-02-08T00:07:37.753Z,8.38
2023-02-08T00:12:39.181Z,8.95
2023-02-08T00:17:40.710Z,8.18
2023-02-08T00:22:42.182Z,9.18
2023-02-08T00:27:43.595Z,8.82
2023-02-08T00:32:44.989Z,9.48
2023-02-08T00:37:46.399Z,8.48
2023-02-08T00:42:47.803Z,8.68
2023-02-08T00:47:49.259Z,9.43
2023-02-08T00:52:51.255Z,10.32
2023-02-08T00:57:52.753Z,9.65
2023-02-08T01:02:54.133Z,9.38
2023-02-08T01:07:55.517Z,9.15
2023-02-08T01:12:56.902Z,9.15
2023-02-08T01:17:58.430Z,9.98
2023-02-08T01:22:59.826Z,9.82
2023-02-08T01:28:01.250Z,11.13
2023-02-08T01:33:02.663Z,11.10
2023-02-08T01:38:04.060Z,10.82
2023-02-08T01:43:16.544Z,10.40
2023-02-08T01:48:28.351Z,10.20
2023-02-08T01:53:31.643Z,10.65
2023-02-08T01:58:38.994Z,10.18
2023-02-08T02:03:40.495Z,9.73
2023-02-08T02:08:57.698Z,10.73
2023-02-08T02:14:00.724Z,10.27
2023-02-08T02:19:02.682Z,9.70
2023-02-08T02:24:24.320Z,8.63
2023-02-08T02:29:31.847Z,9.90
2023-02-08T02:34:42.406Z,11.77
2023-02-08T02:40:01.662Z,10.60
2023-02-08T02:45:14.984Z,10.20
2023-02-08T02:50:34.850Z,9.55
2023-02-08T02:55:46.448Z,9.88
2023-02-08T03:00:55.762Z,10.18
2023-02-08T03:06:20.260Z,11.43
2023-02-08T03:11:26.748Z,9.07
2023-02-08T03:16:58.916Z,10.48
2023-02-08T03:22:17.873Z,10.23
2023-02-08T03:27:31.207Z,10.95
2023-02-08T03:32:43.247Z,10.27
2023-02-08T03:37:50.238Z,9.25
2023-02-08T03:42:54.058Z,9.18
2023-02-08T03:48:00.331Z,9.30
2023-02-08T03:53:02.308Z,8.95
2023-02-08T03:58:10.438Z,9.85
2023-02-08T04:03:22.964Z,10.32
2023-02-08T04:08:25.107Z,10.10
2023-02-08T04:13:26.518Z,10.50
2023-02-08T04:18:27.912Z,10.23
2023-02-08T04:23:29.368Z,10.25
2023-02-08T04:28:30.784Z,10.23
2023-02-08T04:33:32.245Z,10.23
2023-02-08T04:38:33.961Z,10.43
2023-02-08T04:43:35.676Z,9.73
2023-02-08T04:48:37.338Z,9.27
2023-02-08T04:53:38.736Z,9.75
2023-02-08T04:58:40.422Z,9.27
2023-02-08T05:03:41.903Z,10.82
2023-02-08T05:08:43.321Z,10.23
2023-02-08T05:13:44.747Z,10.63
2023-02-08T05:18:46.203Z,10.55
2023-02-08T05:23:47.589Z,11.65
2023-02-08T05:28:49.033Z,12.40
2023-02-08T05:33:52.011Z,11.95
2023-02-08T05:38:53.572Z,10.07
2023-02-08T05:43:54.989Z,11.60
2023-02-08T05:48:56.390Z,11.48
2023-02-08T05:53:57.798Z,10.63
2023-02-08T05:59:03.431Z,10.48
2023-02-08T06:04:04.954Z,11.02
2023-02-08T06:09:06.398Z,11.82
2023-02-08T06:14:07.810Z,11.55
2023-02-08T06:19:09.185Z,11.45
2023-02-08T06:24:11.458Z,11.65
2023-02-08T06:29:12.859Z,12.07
2023-02-08T06:34:14.235Z,11.15
2023-02-08T06:39:15.627Z,12.63
2023-02-08T06:44:17.054Z,10.15
2023-02-08T06:49:18.745Z,11.82
2023-02-08T06:54:20.219Z,13.02
2023-02-08T06:59:21.759Z,12.77
2023-02-08T07:04:23.177Z,12.98
2023-02-08T07:09:24.614Z,12.02
2023-02-08T07:14:26.019Z,11.23
2023-02-08T07:19:28.138Z,12.23
2023-02-08T07:24:29.779Z,12.00
2023-02-08T07:29:32.832Z,11.70
2023-02-08T07:34:37.072Z,13.95
2023-02-08T07:39:38.500Z,10.45
2023-02-08T07:44:40.078Z,12.98
2023-02-08T07:49:41.570Z,10.90
2023-02-08T07:54:42.989Z,12.18
2023-02-08T07:59:44.365Z,11.65
2023-02-08T08:04:45.739Z,11.30
2023-02-08T08:09:47.148Z,11.57
2023-02-08T08:14:48.514Z,10.93
2023-02-08T08:19:49.898Z,11.95
2023-02-08T08:24:51.281Z,11.85
2023-02-08T08:29:52.708Z,10.90
2023-02-08T08:34:54.112Z,12.38
2023-02-08T08:39:55.572Z,11.38
2023-02-08T08:44:56.997Z,11.07
2023-02-08T08:49:58.438Z,11.45
2023-02-08T08:54:59.896Z,11.27
2023-02-08T09:00:01.344Z,11.95
2023-02-08T09:05:04.198Z,11.73
2023-02-08T09:10:06.291Z,12.20
2023-02-08T09:15:08.174Z,12.43
2023-02-08T09:20:10.069Z,10.35
2023-02-08T09:25:11.518Z,11.05
2023-02-08T09:30:13.349Z,9.95
2023-02-08T09:35:15.376Z,10.18
2023-02-08T09:40:31.318Z,9.70
2023-02-08T09:45:59.588Z,10.35
2023-02-08T09:51:14.617Z,11.32
2023-02-08T09:56:21.304Z,9.38
2023-02-08T10:01:27.210Z,9.10
2023-02-08T10:06:30.485Z,10.40
2023-02-08T10:11:44.329Z,9.80
2023-02-08T10:16:54.833Z,11.23
2023-02-08T10:27:08.610Z,8.88
2023-02-08T10:32:26.528Z,9.43
2023-02-08T10:37:34.548Z,9.55
2023-02-08T10:42:37.401Z,8.55
2023-02-08T10:48:03.243Z,9.43
2023-02-08T10:53:05.373Z,9.10
2023-02-08T10:58:07.578Z,9.27
2023-02-08T11:03:22.566Z,8.90
2023-02-08T11:08:26.819Z,9.70
2023-02-08T11:13:36.959Z,10.18
2023-02-08T11:18:47.163Z,9.68
2023-02-08T11:23:52.262Z,10.60
2023-02-08T11:29:06.034Z,9.32
2023-02-08T11:34:10.648Z,10.02
2023-02-08T11:39:39.749Z,8.85
2023-02-08T11:44:45.758Z,8.65
2023-02-08T11:49:54.501Z,9.18
2023-02-08T11:55:13.926Z,9.80
2023-02-08T12:00:23.058Z,8.60
2023-02-08T12:05:36.537Z,9.50
2023-02-08T12:10:55.442Z,9.57
2023-02-08T12:16:36.151Z,9.98
2023-02-08T12:21:46.880Z,9.43
2023-02-08T12:26:57.459Z,9.57
2023-02-08T12:37:48.858Z,8.02
2023-02-08T12:43:14.859Z,8.75
2023-02-08T12:48:33.575Z,8.50
2023-02-08T12:53:41.380Z,8.55
2023-02-08T12:58:42.956Z,7.47
2023-02-08T13:03:51.599Z,7.72
2023-02-08T13:09:12.790Z,8.07
2023-02-08T13:14:20.133Z,8.52
2023-02-08T13:19:58.141Z,7.78
2023-02-08T13:25:07.921Z,7.32
2023-02-08T13:30:19.246Z,7.50
2023-02-08T13:35:30.584Z,8.07
2023-02-08T13:40:34.942Z,7.85
2023-02-08T13:45:42.471Z,7.63
2023-02-08T13:50:46.154Z,7.82
2023-02-08T13:55:58.606Z,8.77
2023-02-08T14:01:04.908Z,7.50
2023-02-08T14:06:17.793Z,7.53
2023-02-08T14:11:42.496Z,7.00
2023-02-08T14:16:46.429Z,6.90
2023-02-08T14:21:59.194Z,7.00
2023-02-08T14:27:20.349Z,8.27
2023-02-08T14:32:24.100Z,7.85
2023-02-08T14:37:32.203Z,8.00
2023-02-08T14:42:52.661Z,7.95
2023-02-08T14:47:57.701Z,8.05
2023-02-08T14:53:16.932Z,8.50
2023-02-08T14:58:28.452Z,7.72
2023-02-08T15:03:32.295Z,8.18
2023-02-08T15:08:33.851Z,7.82
2023-02-08T15:13:35.393Z,7.28
2023-02-08T15:18:37.010Z,6.97
2023-02-08T15:23:38.475Z,7.15
2023-02-08T15:28:44.503Z,7.20
2023-02-08T15:33:47.114Z,8.18
2023-02-08T15:38:49.136Z,6.63
2023-02-08T15:43:50.627Z,6.97
2023-02-08T15:48:53.870Z,6.75
2023-02-08T15:53:56.766Z,7.20
2023-02-08T15:59:01.228Z,6.82
2023-02-08T16:04:12.428Z,8.15
2023-02-08T16:09:20.230Z,6.85
2023-02-08T16:14:27.866Z,7.03
2023-02-08T16:19:32.779Z,6.35
2023-02-08T16:24:34.188Z,6.38
2023-02-08T16:29:39.763Z,6.35
2023-02-08T16:34:41.407Z,7.45
2023-02-08T16:40:08.720Z,6.25
2023-02-08T16:45:19.862Z,7.10
2023-02-08T16:50:27.174Z,9.63
2023-02-08T16:55:31.923Z,7.45
2023-02-08T17:00:35.526Z,7.70
2023-02-08T17:05:45.318Z,6.97
2023-02-08T17:10:51.701Z,7.20
2023-02-08T17:15:54.002Z,6.65
2023-02-08T17:20:59.596Z,10.70
2023-02-08T17:26:01.091Z,7.82
2023-02-08T17:31:02.654Z,6.43
2023-02-08T17:36:04.329Z,6.18
2023-02-08T17:41:17.696Z,6.18
2023-02-08T17:46:22.566Z,6.75
2023-02-08T17:51:25.174Z,6.55
2023-02-08T17:56:28.771Z,6.63
2023-02-08T18:01:31.317Z,7.07
2023-02-08T18:06:33.422Z,7.55
2023-02-08T18:11:34.861Z,7.40
2023-02-08T18:16:36.330Z,7.60
2023-02-08T18:21:37.861Z,8.95
2023-02-08T18:26:39.322Z,7.97
2023-02-08T18:31:41.028Z,8.45
2023-02-08T18:36:43.220Z,8.10
2023-02-08T18:41:44.748Z,7.57
2023-02-08T18:46:47.800Z,9.63
2023-02-08T18:51:49.265Z,8.60
2023-02-08T18:56:53.962Z,9.80
2023-02-08T19:01:55.465Z,11.88
2023-02-08T19:06:56.967Z,9.68
2023-02-08T19:11:58.353Z,7.60
2023-02-08T19:17:00.618Z,11.23
2023-02-08T19:22:02.027Z,10.32
2023-02-08T19:27:03.504Z,8.50
2023-02-08T19:32:07.603Z,9.52
2023-02-08T19:37:09.035Z,9.35
2023-02-08T19:42:10.665Z,12.65
2023-02-08T19:47:12.167Z,9.85
2023-02-08T19:52:16.022Z,10.05
2023-02-08T19:57:17.566Z,11.65
2023-02-08T20:02:18.957Z,10.60
2023-02-08T20:07:20.393Z,9.60
2023-02-08T20:12:22.267Z,10.88
2023-02-08T20:17:23.915Z,12.75
2023-02-08T20:22:25.323Z,12.32
2023-02-08T20:27:32.077Z,12.35
2023-02-08T20:32:33.494Z,11.68
2023-02-08T20:37:34.933Z,13.70
2023-02-08T20:42:36.692Z,11.82
2023-02-08T20:47:46.379Z,12.88
2023-02-08T20:52:49.026Z,13.77
2023-02-08T20:57:50.519Z,13.43
2023-02-08T21:02:51.965Z,12.38
2023-02-08T21:07:53.357Z,11.48
2023-02-08T21:12:54.771Z,12.95
2023-02-08T21:17:56.276Z,13.20
2023-02-08T21:22:57.749Z,14.77
2023-02-08T21:27:59.472Z,14.68
2023-02-08T21:33:00.953Z,13.77
2023-02-08T21:38:02.373Z,11.05
2023-02-08T21:43:03.811Z,14.55
2023-02-08T21:48:05.467Z,13.23
2023-02-08T21:53:25.542Z,12.85
2023-02-08T21:58:27.578Z,10.93
2023-02-08T22:03:31.253Z,12.45
2023-02-08T22:08:32.687Z,12.82
2023-02-08T22:13:34.108Z,12.23
2023-02-08T22:18:36.592Z,12.23
2023-02-08T22:23:38.011Z,11.50
2023-02-08T22:28:39.437Z,11.82
2023-02-08T22:33:41.914Z,13.20
2023-02-08T22:38:43.355Z,12.57
2023-02-08T22:43:45.221Z,13.57
2023-02-08T22:48:46.640Z,12.70
2023-02-08T22:53:48.101Z,12.85
2023-02-08T22:58:49.496Z,13.85
2023-02-08T23:03:50.879Z,12.48
2023-02-08T23:08:52.416Z,12.48
2023-02-08T23:13:55.029Z,12.40
2023-02-08T23:18:56.505Z,12.77
2023-02-08T23:23:57.909Z,13.20
2023-02-08T23:28:59.358Z,13.15
2023-02-08T23:34:00.842Z,12.90
2023-02-08T23:39:03.373Z,11.82
2023-02-08T23:44:04.985Z,13.77
2023-02-08T23:49:06.394Z,13.85
2023-02-08T23:54:07.981Z,12.98
2023-02-08T23:59:10.485Z,13.20
